Terminal Aerodrome Forecast
Issued by NWS Birmingham, AL

Home | Current Version | Previous Version | Text Only | Print | Product List | Glossary On
Versions: 1 2 3 4 5 6 7 8 9 10 11 12 13 14 15 16 17 18 19 20 21 22 23 24 25 26 27 28
695
FTUS44 KBMX 300520
TAFBHM
TAF
KBHM 300520Z 3006/3106 16006KT P6SM BKN250
     FM301200 17008KT P6SM OVC012
     FM301700 18010G17KT P6SM BKN025
     FM302100 19012G22KT P6SM VCTS BKN040CB=

USA.gov is the U.S. government's official web portal to all federal, state and local government web resources and services.